createdAt,value
2018-03-29T00:00:21.968Z,36.80
2018-03-29T00:02:49.531Z,39.92
2018-03-29T00:05:17.047Z,34.70
2018-03-29T00:07:44.617Z,38.07
2018-03-29T00:10:12.128Z,36.87
2018-03-29T00:12:39.661Z,36.47
2018-03-29T00:15:07.950Z,38.20
2018-03-29T00:17:35.590Z,38.00
2018-03-29T00:20:03.114Z,38.80
2018-03-29T00:22:30.805Z,37.60
2018-03-29T00:24:59.166Z,37.42
2018-03-29T00:27:26.734Z,38.17
2018-03-29T00:29:54.538Z,39.00
2018-03-29T00:32:22.090Z,38.95
2018-03-29T00:34:49.637Z,38.27
2018-03-29T00:37:17.188Z,38.97
2018-03-29T00:39:44.729Z,37.63
2018-03-29T00:42:12.251Z,38.22
2018-03-29T00:44:39.833Z,40.17
2018-03-29T00:47:07.361Z,38.53
2018-03-29T00:49:35.904Z,38.10
2018-03-29T00:52:03.485Z,40.22
2018-03-29T00:54:31.080Z,41.67
2018-03-29T00:57:00.415Z,38.53
2018-03-29T00:59:27.971Z,36.93
2018-03-29T01:01:55.523Z,35.83
2018-03-29T01:04:23.076Z,37.50
2018-03-29T01:06:50.618Z,37.33
2018-03-29T01:09:18.173Z,35.13
2018-03-29T01:11:45.700Z,36.17
2018-03-29T01:14:13.394Z,33.40
2018-03-29T01:16:40.931Z,37.28
2018-03-29T01:19:08.508Z,35.80
2018-03-29T01:21:36.059Z,34.13
2018-03-29T01:24:03.585Z,34.07
2018-03-29T01:26:31.259Z,32.73
2018-03-29T01:28:58.823Z,33.37
2018-03-29T01:31:27.147Z,34.70
2018-03-29T01:33:54.708Z,32.97
2018-03-29T01:36:22.231Z,34.80
2018-03-29T01:38:49.764Z,33.57
2018-03-29T01:41:17.287Z,33.42
2018-03-29T01:43:45.606Z,34.80
2018-03-29T01:46:13.124Z,33.93
2018-03-29T01:48:40.654Z,32.03
2018-03-29T01:51:08.179Z,31.17
2018-03-29T01:53:36.478Z,31.80
2018-03-29T01:56:04.776Z,31.77
2018-03-29T01:58:32.336Z,34.43
2018-03-29T02:01:01.424Z,31.75
2018-03-29T02:03:28.942Z,38.43
2018-03-29T02:05:56.461Z,31.83
2018-03-29T02:08:23.971Z,33.20
2018-03-29T02:10:52.480Z,31.43
2018-03-29T02:13:20.115Z,33.80
2018-03-29T02:15:47.646Z,34.77
2018-03-29T02:18:15.180Z,36.50
2018-03-29T02:20:42.714Z,34.00
2018-03-29T02:23:10.246Z,34.17
2018-03-29T02:25:38.560Z,37.00
2018-03-29T02:28:06.086Z,34.80
2018-03-29T02:30:33.628Z,36.87
2018-03-29T02:33:01.234Z,36.67
2018-03-29T02:35:28.783Z,38.00
2018-03-29T02:37:57.067Z,36.90
2018-03-29T02:40:24.650Z,39.20
2018-03-29T02:42:52.201Z,41.03
2018-03-29T02:45:19.718Z,40.60
2018-03-29T02:47:47.252Z,39.93
2018-03-29T02:50:14.765Z,41.07
2018-03-29T02:52:43.082Z,42.10
2018-03-29T02:55:10.617Z,41.93
2018-03-29T02:57:38.171Z,39.83
2018-03-29T03:00:05.691Z,41.47
2018-03-29T03:02:33.229Z,43.93
2018-03-29T03:05:00.767Z,44.10
2018-03-29T03:07:28.309Z,42.57
2018-03-29T03:09:55.988Z,41.10
2018-03-29T03:12:24.696Z,43.90
2018-03-29T03:14:53.010Z,41.37
2018-03-29T03:17:20.534Z,42.10
2018-03-29T03:19:48.075Z,40.90
2018-03-29T03:22:16.372Z,42.47
2018-03-29T03:24:44.128Z,41.97
2018-03-29T03:27:11.661Z,42.67
2018-03-29T03:29:39.196Z,38.30
2018-03-29T03:32:06.825Z,36.70
2018-03-29T03:34:35.157Z,36.07
2018-03-29T03:37:02.785Z,35.42
2018-03-29T03:39:31.174Z,33.07
2018-03-29T03:41:58.684Z,31.53
2018-03-29T03:44:26.223Z,30.60
2018-03-29T03:46:53.937Z,29.17
2018-03-29T03:49:21.517Z,30.37
2018-03-29T03:51:49.051Z,28.50
2018-03-29T03:54:16.607Z,26.63
2018-03-29T03:56:44.141Z,26.20
2018-03-29T03:59:11.652Z,21.73
2018-03-29T04:01:39.957Z,23.17
2018-03-29T04:04:07.471Z,26.37
2018-03-29T04:06:35.041Z,23.23
2018-03-29T04:09:03.584Z,23.87
2018-03-29T04:11:31.124Z,24.57
2018-03-29T04:13:58.642Z,17.43
2018-03-29T04:16:26.168Z,22.10
2018-03-29T04:18:53.707Z,19.87
2018-03-29T04:21:21.263Z,16.53
2018-03-29T04:23:48.817Z,13.67
2018-03-29T04:26:17.103Z,13.00
2018-03-29T04:28:45.409Z,11.13
2018-03-29T04:31:12.932Z,11.63
2018-03-29T04:33:40.475Z,11.30
2018-03-29T04:36:07.987Z,10.97
2018-03-29T04:38:36.283Z,9.17
2018-03-29T04:41:04.073Z,11.43
2018-03-29T04:43:32.509Z,11.40
2018-03-29T04:46:00.023Z,11.73
2018-03-29T04:48:27.541Z,12.00
2018-03-29T04:50:55.839Z,11.53
2018-03-29T04:53:23.384Z,13.20
2018-03-29T04:55:50.938Z,13.37
2018-03-29T04:58:18.462Z,13.27
2018-03-29T05:00:45.987Z,14.47
2018-03-29T05:03:14.317Z,13.00
2018-03-29T05:05:42.628Z,10.80
2018-03-29T05:08:10.157Z,11.13
2018-03-29T05:10:38.482Z,12.57
2018-03-29T05:13:06.005Z,12.45
2018-03-29T05:15:33.556Z,12.10
2018-03-29T05:18:01.078Z,11.68
2018-03-29T05:20:28.602Z,12.00
2018-03-29T05:22:56.885Z,11.47
2018-03-29T05:25:24.740Z,12.13
2018-03-29T05:27:54.174Z,12.27
2018-03-29T05:30:21.686Z,9.17
2018-03-29T05:32:49.216Z,12.70
2018-03-29T05:35:16.755Z,11.47
2018-03-29T05:37:44.293Z,12.00
2018-03-29T05:40:11.849Z,10.70
2018-03-29T05:42:39.427Z,8.37
2018-03-29T05:45:06.944Z,7.63
2018-03-29T05:47:34.484Z,6.87
2018-03-29T05:50:01.991Z,6.10
2018-03-29T05:52:30.283Z,6.37
2018-03-29T05:54:57.795Z,4.97
2018-03-29T05:57:26.103Z,4.80
2018-03-29T05:59:53.606Z,4.20
2018-03-29T06:02:21.895Z,4.68
2018-03-29T06:04:49.480Z,4.20
2018-03-29T06:07:17.309Z,4.20
2018-03-29T06:09:44.881Z,4.10
2018-03-29T06:12:13.160Z,5.55
2018-03-29T06:14:45.321Z,4.57
2018-03-29T06:17:19.206Z,5.83
2018-03-29T06:19:47.506Z,4.83
2018-03-29T06:22:15.021Z,5.43
2018-03-29T06:24:42.549Z,5.00
2018-03-29T06:27:10.984Z,4.60
2018-03-29T06:29:39.314Z,6.43
2018-03-29T06:32:06.856Z,5.83
2018-03-29T06:34:34.444Z,5.90
2018-03-29T06:37:02.820Z,5.50
2018-03-29T06:39:30.336Z,5.97
2018-03-29T06:41:57.865Z,5.00
2018-03-29T06:44:25.391Z,6.20
2018-03-29T06:46:52.914Z,5.60
2018-03-29T06:49:21.198Z,5.40
2018-03-29T06:51:48.725Z,5.43
2018-03-29T06:54:18.045Z,4.60
2018-03-29T06:56:45.577Z,5.23
2018-03-29T06:59:13.101Z,4.87
2018-03-29T07:01:41.391Z,4.70
2018-03-29T07:04:08.963Z,4.50
2018-03-29T07:06:36.498Z,4.83
2018-03-29T07:09:04.058Z,4.50
2018-03-29T07:11:31.578Z,4.83
2018-03-29T07:13:59.105Z,5.12
2018-03-29T07:16:26.617Z,4.40
2018-03-29T07:18:54.922Z,4.80
2018-03-29T07:21:22.434Z,3.80
2018-03-29T07:23:50.757Z,4.23
2018-03-29T07:26:18.288Z,5.10
2018-03-29T07:28:45.880Z,3.70
2018-03-29T07:31:13.474Z,3.87
2018-03-29T07:33:41.013Z,4.13
2018-03-29T07:36:08.602Z,3.37
2018-03-29T07:38:36.123Z,4.10
2018-03-29T07:41:03.697Z,4.03
2018-03-29T07:43:31.982Z,3.63
2018-03-29T07:45:59.514Z,4.00
2018-03-29T07:48:27.036Z,3.67
2018-03-29T07:50:55.344Z,3.03
2018-03-29T07:53:22.878Z,3.17
2018-03-29T07:55:51.180Z,3.90
2018-03-29T07:58:18.684Z,3.60
2018-03-29T08:00:46.235Z,3.63
2018-03-29T08:03:13.756Z,3.17
2018-03-29T08:05:41.287Z,3.90
2018-03-29T08:08:08.828Z,4.20
2018-03-29T08:10:36.340Z,4.60
2018-03-29T08:13:03.867Z,3.40
2018-03-29T08:15:31.380Z,3.60
2018-03-29T08:17:58.965Z,3.47
2018-03-29T08:20:26.497Z,3.20
2018-03-29T08:22:54.040Z,2.90
2018-03-29T08:25:21.581Z,2.37
2018-03-29T08:27:49.121Z,3.50
2018-03-29T08:30:16.627Z,3.27
2018-03-29T08:32:44.928Z,3.40
2018-03-29T08:35:12.436Z,3.67
2018-03-29T08:37:40.748Z,3.43
2018-03-29T08:40:08.260Z,3.10
2018-03-29T08:42:35.764Z,2.90
2018-03-29T08:45:03.288Z,3.00
2018-03-29T08:47:30.804Z,2.87
2018-03-29T08:49:58.434Z,2.77
2018-03-29T08:52:25.956Z,2.63
2018-03-29T08:54:54.280Z,3.20
2018-03-29T08:57:21.795Z,3.00
2018-03-29T08:59:49.312Z,2.80
2018-03-29T09:02:16.915Z,3.00
2018-03-29T09:04:44.466Z,3.20
2018-03-29T09:07:11.975Z,3.33
2018-03-29T09:09:39.541Z,2.97
2018-03-29T09:12:07.056Z,3.90
2018-03-29T09:14:34.599Z,3.43
2018-03-29T09:17:02.136Z,3.03
2018-03-29T09:19:30.407Z,3.70
2018-03-29T09:21:57.986Z,3.17
2018-03-29T09:24:25.532Z,3.75
2018-03-29T09:26:55.658Z,3.00
2018-03-29T09:29:24.409Z,3.43
2018-03-29T09:31:51.941Z,3.23
2018-03-29T09:34:19.459Z,2.87
2018-03-29T09:36:46.997Z,3.30
2018-03-29T09:39:14.534Z,4.07
2018-03-29T09:41:42.812Z,4.00
2018-03-29T09:44:11.089Z,3.45
2018-03-29T09:46:38.595Z,3.57
2018-03-29T09:49:06.923Z,3.47
2018-03-29T09:51:34.431Z,4.00
2018-03-29T09:54:01.985Z,4.53
2018-03-29T09:56:29.560Z,7.20
2018-03-29T09:58:57.081Z,5.30
2018-03-29T10:01:24.613Z,6.00
2018-03-29T10:03:52.912Z,5.27
2018-03-29T10:06:26.129Z,5.00
2018-03-29T10:08:53.738Z,4.80
2018-03-29T10:11:21.253Z,4.73
2018-03-29T10:13:48.790Z,4.60
2018-03-29T10:16:16.334Z,4.50
2018-03-29T10:18:43.996Z,4.77
2018-03-29T10:21:11.974Z,4.18
2018-03-29T10:23:39.516Z,4.47
2018-03-29T10:26:07.151Z,4.53
2018-03-29T10:28:34.663Z,4.27
2018-03-29T10:31:02.261Z,4.37
2018-03-29T10:33:29.822Z,3.80
2018-03-29T10:35:58.237Z,4.35
2018-03-29T10:38:25.761Z,3.80
2018-03-29T10:40:54.143Z,4.03
2018-03-29T10:43:21.664Z,3.33
2018-03-29T10:45:49.169Z,3.67
2018-03-29T10:48:16.697Z,4.10
2018-03-29T10:50:44.258Z,4.33
2018-03-29T10:53:13.569Z,3.47
2018-03-29T10:55:41.101Z,4.20
2018-03-29T10:58:09.423Z,4.70
2018-03-29T11:00:36.994Z,5.23
2018-03-29T11:03:05.295Z,3.67
2018-03-29T11:05:32.965Z,4.70
2018-03-29T11:08:00.506Z,3.93
2018-03-29T11:10:28.058Z,3.30
2018-03-29T11:12:55.567Z,3.37
2018-03-29T11:15:23.090Z,3.43
2018-03-29T11:17:51.385Z,4.37
2018-03-29T11:20:19.053Z,5.13
2018-03-29T11:22:46.567Z,4.13
2018-03-29T11:25:14.140Z,5.50
2018-03-29T11:27:41.684Z,4.57
2018-03-29T11:30:09.200Z,3.35
2018-03-29T11:32:36.762Z,3.50
2018-03-29T11:35:04.319Z,3.93
2018-03-29T11:37:31.865Z,3.50
2018-03-29T11:39:59.395Z,3.60
2018-03-29T11:42:26.931Z,4.67
2018-03-29T11:44:54.439Z,5.23
2018-03-29T11:47:22.736Z,5.23
2018-03-29T11:49:50.261Z,5.90
2018-03-29T11:52:17.774Z,4.37
2018-03-29T11:54:45.317Z,4.50
2018-03-29T11:57:13.765Z,3.20
2018-03-29T11:59:41.307Z,3.50
2018-03-29T12:02:08.849Z,3.63
2018-03-29T12:04:36.376Z,4.00
2018-03-29T12:07:04.341Z,4.10
2018-03-29T12:09:31.879Z,3.90
2018-03-29T12:11:59.409Z,3.93
2018-03-29T12:14:27.181Z,3.93
2018-03-29T12:16:54.706Z,5.17
2018-03-29T12:19:22.369Z,4.83
2018-03-29T12:21:49.913Z,4.33
2018-03-29T12:24:17.471Z,4.35
2018-03-29T12:26:45.004Z,3.90
2018-03-29T12:29:12.523Z,5.13
2018-03-29T12:31:40.057Z,4.73
2018-03-29T12:34:07.585Z,4.93
2018-03-29T12:36:35.888Z,4.67
2018-03-29T12:39:03.395Z,4.10
2018-03-29T12:41:31.768Z,4.00
2018-03-29T12:43:59.301Z,4.63
2018-03-29T12:46:27.587Z,4.10
2018-03-29T12:48:55.103Z,5.27
2018-03-29T12:51:23.414Z,4.70
2018-03-29T12:53:50.960Z,4.53
2018-03-29T12:56:21.359Z,5.07
2018-03-29T12:58:48.877Z,4.73
2018-03-29T13:01:16.436Z,4.80
2018-03-29T13:03:44.005Z,4.93
2018-03-29T13:06:11.654Z,4.40
2018-03-29T13:08:39.173Z,4.60
2018-03-29T13:11:06.770Z,4.33
2018-03-29T13:13:35.081Z,5.63
2018-03-29T13:16:02.612Z,5.07
2018-03-29T13:18:30.124Z,5.60
2018-03-29T13:20:57.650Z,5.33
2018-03-29T13:23:25.170Z,5.43
2018-03-29T13:25:52.699Z,6.57
2018-03-29T13:28:20.210Z,6.70
2018-03-29T13:30:48.603Z,6.80
2018-03-29T13:33:16.599Z,8.70
2018-03-29T13:35:44.228Z,6.20
2018-03-29T13:38:12.571Z,7.60
2018-03-29T13:40:40.102Z,8.30
2018-03-29T13:43:07.645Z,10.57
2018-03-29T13:45:35.164Z,8.73
2018-03-29T13:48:03.455Z,8.13
2018-03-29T13:50:30.975Z,12.33
2018-03-29T13:52:59.332Z,9.70
2018-03-29T13:55:26.857Z,11.57
2018-03-29T13:57:54.480Z,8.50
2018-03-29T14:00:22.106Z,8.07
2018-03-29T14:02:49.757Z,8.30
2018-03-29T14:05:17.337Z,8.43
2018-03-29T14:07:44.919Z,8.10
2018-03-29T14:10:12.518Z,8.23
2018-03-29T14:12:40.076Z,8.37
2018-03-29T14:15:07.590Z,9.13
2018-03-29T14:17:36.044Z,9.80
2018-03-29T14:20:03.594Z,8.23
2018-03-29T14:22:31.131Z,9.33
2018-03-29T14:24:58.727Z,10.63
2018-03-29T14:27:26.283Z,10.93
2018-03-29T14:29:54.603Z,10.20
2018-03-29T14:32:22.107Z,9.73
2018-03-29T14:34:50.410Z,11.63
2018-03-29T14:37:18.868Z,10.95
2018-03-29T14:39:46.412Z,10.93
2018-03-29T14:42:14.067Z,11.40
2018-03-29T14:44:41.603Z,10.90
2018-03-29T14:47:09.335Z,13.33
2018-03-29T14:49:36.868Z,12.43
2018-03-29T14:52:04.428Z,10.70
2018-03-29T14:54:31.951Z,11.57
2018-03-29T14:57:00.257Z,11.10
2018-03-29T14:59:27.848Z,12.17
2018-03-29T15:01:56.140Z,10.47
2018-03-29T15:04:23.671Z,10.70
2018-03-29T15:06:51.205Z,12.20
2018-03-29T15:09:19.313Z,10.55
2018-03-29T15:11:46.851Z,11.37
2018-03-29T15:14:14.409Z,10.27
2018-03-29T15:16:41.923Z,10.80
2018-03-29T15:19:09.471Z,11.70
2018-03-29T15:21:36.984Z,10.20
2018-03-29T15:24:05.420Z,11.70
2018-03-29T15:26:33.038Z,11.47
2018-03-29T15:29:00.683Z,11.20
2018-03-29T15:31:28.203Z,12.17
2018-03-29T15:33:55.748Z,12.57
2018-03-29T15:36:23.275Z,11.87
2018-03-29T15:38:50.825Z,12.60
2018-03-29T15:41:18.358Z,13.27
2018-03-29T15:43:45.951Z,12.50
2018-03-29T15:46:13.497Z,13.33
2018-03-29T15:48:41.027Z,13.40
2018-03-29T15:51:08.551Z,13.13
2018-03-29T15:53:36.131Z,13.83
2018-03-29T15:56:03.643Z,12.63
2018-03-29T15:58:31.217Z,13.20
2018-03-29T16:00:58.759Z,11.90
2018-03-29T16:03:26.286Z,13.73
2018-03-29T16:05:53.821Z,50.63
2018-03-29T16:08:21.394Z,18.33
2018-03-29T16:10:48.919Z,15.70
2018-03-29T16:13:16.507Z,21.80
2018-03-29T16:15:44.037Z,13.93
2018-03-29T16:18:11.609Z,12.37
2018-03-29T16:20:39.116Z,16.40
2018-03-29T16:23:06.652Z,15.03
2018-03-29T16:25:34.171Z,17.07
2018-03-29T16:28:01.712Z,15.43
2018-03-29T16:30:29.228Z,15.70
2018-03-29T16:32:56.835Z,15.70
2018-03-29T16:35:24.378Z,15.27
2018-03-29T16:37:51.903Z,15.47
2018-03-29T16:40:19.478Z,15.70
2018-03-29T16:42:47.051Z,15.80
2018-03-29T16:45:14.619Z,15.30
2018-03-29T16:47:42.922Z,15.00
2018-03-29T16:50:10.457Z,16.17
2018-03-29T16:52:38.113Z,21.20
2018-03-29T16:55:05.639Z,25.23
2018-03-29T16:57:33.165Z,17.77
2018-03-29T17:00:00.714Z,14.80
2018-03-29T17:02:28.243Z,14.90
2018-03-29T17:04:56.558Z,18.80
2018-03-29T17:07:24.099Z,13.80
2018-03-29T17:09:51.668Z,17.97
2018-03-29T17:12:19.982Z,12.03
2018-03-29T17:14:47.522Z,51.93
2018-03-29T17:17:15.173Z,14.40
2018-03-29T17:19:42.714Z,12.27
2018-03-29T17:22:10.357Z,26.43
2018-03-29T17:24:37.920Z,10.73
2018-03-29T17:27:05.442Z,8.57
2018-03-29T17:29:32.987Z,12.07
2018-03-29T17:32:00.525Z,11.37
2018-03-29T17:34:28.086Z,7.77
2018-03-29T17:36:55.610Z,11.77
2018-03-29T17:39:23.917Z,9.03
2018-03-29T17:41:51.445Z,11.90
2018-03-29T17:44:19.059Z,8.30
2018-03-29T17:46:46.657Z,10.17
2018-03-29T17:49:14.188Z,10.17
2018-03-29T17:51:41.717Z,7.30
2018-03-29T17:54:09.264Z,8.57
2018-03-29T17:56:36.792Z,6.63
2018-03-29T17:59:04.331Z,7.40
2018-03-29T18:01:31.861Z,18.75
2018-03-29T18:04:00.162Z,7.97
2018-03-29T18:06:27.698Z,6.43
2018-03-29T18:08:55.251Z,8.23
2018-03-29T18:11:22.789Z,8.20
2018-03-29T18:13:50.319Z,15.97
2018-03-29T18:16:17.847Z,10.47
2018-03-29T18:18:46.175Z,24.37
2018-03-29T18:21:13.910Z,22.37
2018-03-29T18:23:41.446Z,28.20
2018-03-29T18:26:09.026Z,11.60
2018-03-29T18:28:36.533Z,13.40
2018-03-29T18:31:04.098Z,12.90
2018-03-29T18:33:31.631Z,8.60
2018-03-29T18:35:59.189Z,7.73
2018-03-29T18:38:26.827Z,10.45
2018-03-29T18:40:54.358Z,12.87
2018-03-29T18:43:21.887Z,9.23
2018-03-29T18:45:49.462Z,8.47
2018-03-29T18:48:16.986Z,7.60
2018-03-29T18:50:44.525Z,19.57
2018-03-29T18:53:12.032Z,9.93
2018-03-29T18:55:40.379Z,13.10
2018-03-29T18:58:07.922Z,14.83
2018-03-29T19:00:36.290Z,9.80
2018-03-29T19:03:03.915Z,17.67
2018-03-29T19:05:31.440Z,17.40
2018-03-29T19:07:59.004Z,11.40
2018-03-29T19:10:26.548Z,28.40
2018-03-29T19:12:54.115Z,8.87
2018-03-29T19:15:21.657Z,16.93
2018-03-29T19:17:49.250Z,18.40
2018-03-29T19:20:16.808Z,12.37
2018-03-29T19:22:44.333Z,12.80
2018-03-29T19:25:11.878Z,15.17
2018-03-29T19:27:39.420Z,21.30
2018-03-29T19:30:07.090Z,14.98
2018-03-29T19:32:34.615Z,10.47
2018-03-29T19:35:02.208Z,10.48
2018-03-29T19:37:29.752Z,12.73
2018-03-29T19:39:57.536Z,13.17
2018-03-29T19:42:25.273Z,8.90
2018-03-29T19:44:53.578Z,7.90
2018-03-29T19:47:21.091Z,9.20
2018-03-29T19:49:48.834Z,8.80
2018-03-29T19:52:16.356Z,9.80
2018-03-29T19:54:44.667Z,7.57
2018-03-29T19:57:12.868Z,11.90
2018-03-29T19:59:41.893Z,11.60
2018-03-29T20:02:09.433Z,7.30
2018-03-29T20:04:36.947Z,11.90
2018-03-29T20:07:04.469Z,6.90
2018-03-29T20:09:32.049Z,9.80
2018-03-29T20:12:00.360Z,8.57
2018-03-29T20:14:27.876Z,12.70
2018-03-29T20:16:55.465Z,10.50
2018-03-29T20:19:22.973Z,15.50
2018-03-29T20:21:50.521Z,14.53
2018-03-29T20:24:18.060Z,10.40
2018-03-29T20:26:45.630Z,9.60
2018-03-29T20:29:13.200Z,9.37
2018-03-29T20:31:40.744Z,7.97
2018-03-29T20:34:08.295Z,10.80
2018-03-29T20:36:35.830Z,9.50
2018-03-29T20:39:03.352Z,9.33
2018-03-29T20:41:30.906Z,8.77
2018-03-29T20:43:58.427Z,9.53
2018-03-29T20:46:26.016Z,9.68
2018-03-29T20:48:54.335Z,9.40
2018-03-29T20:51:21.925Z,9.00
2018-03-29T20:53:49.461Z,10.87
2018-03-29T20:56:17.008Z,10.03
2018-03-29T20:58:44.651Z,9.00
2018-03-29T21:01:12.185Z,9.50
2018-03-29T21:03:39.720Z,9.40
2018-03-29T21:06:07.250Z,10.37
2018-03-29T21:08:34.788Z,10.13
2018-03-29T21:11:02.300Z,8.30
2018-03-29T21:13:30.913Z,9.87
2018-03-29T21:15:59.243Z,10.30
2018-03-29T21:18:26.794Z,9.50
2018-03-29T21:20:54.464Z,8.70
2018-03-29T21:23:22.075Z,8.80
2018-03-29T21:25:50.363Z,9.70
2018-03-29T21:28:17.916Z,9.80
2018-03-29T21:30:45.450Z,10.70
2018-03-29T21:33:12.992Z,9.53
2018-03-29T21:35:40.514Z,10.17
2018-03-29T21:38:08.044Z,9.17
2018-03-29T21:40:36.335Z,10.40
2018-03-29T21:43:03.901Z,11.65
2018-03-29T21:45:31.412Z,11.93
2018-03-29T21:47:58.974Z,12.45
2018-03-29T21:50:26.536Z,10.90
2018-03-29T21:52:54.162Z,11.18
2018-03-29T21:55:21.724Z,12.90
2018-03-29T21:57:49.309Z,10.93
2018-03-29T22:00:17.599Z,12.27
2018-03-29T22:02:45.193Z,11.40
2018-03-29T22:05:12.741Z,12.33
2018-03-29T22:07:40.313Z,12.00
2018-03-29T22:10:08.613Z,10.80
2018-03-29T22:12:36.179Z,10.83
2018-03-29T22:15:04.049Z,10.77
2018-03-29T22:17:31.674Z,11.07
2018-03-29T22:19:59.195Z,11.00
2018-03-29T22:22:26.728Z,10.07
2018-03-29T22:24:54.258Z,11.50
2018-03-29T22:27:22.566Z,11.10
2018-03-29T22:29:50.109Z,11.00
2018-03-29T22:32:23.593Z,10.73
2018-03-29T22:34:51.132Z,11.77
2018-03-29T22:37:18.654Z,10.30
2018-03-29T22:39:46.202Z,10.80
2018-03-29T22:42:13.719Z,10.57
2018-03-29T22:44:42.034Z,10.80
2018-03-29T22:47:09.551Z,12.07
2018-03-29T22:49:37.087Z,12.90
2018-03-29T22:52:04.663Z,11.40
2018-03-29T22:54:32.188Z,14.07
2018-03-29T22:56:59.740Z,12.87
2018-03-29T22:59:27.267Z,15.23
2018-03-29T23:01:54.812Z,12.37
2018-03-29T23:04:22.348Z,12.63
2018-03-29T23:06:49.881Z,12.93
2018-03-29T23:09:18.190Z,13.13
2018-03-29T23:11:45.751Z,13.60
2018-03-29T23:14:13.430Z,14.73
2018-03-29T23:16:41.735Z,13.70
2018-03-29T23:19:09.271Z,12.67
2018-03-29T23:21:36.811Z,14.80
2018-03-29T23:24:04.494Z,13.70
2018-03-29T23:26:32.026Z,14.60
2018-03-29T23:28:59.566Z,14.30
2018-03-29T23:31:27.084Z,14.40
2018-03-29T23:33:54.666Z,13.80
2018-03-29T23:36:22.204Z,13.90
2018-03-29T23:38:49.755Z,16.60
2018-03-29T23:41:17.294Z,15.57
2018-03-29T23:43:44.853Z,14.70
2018-03-29T23:46:12.380Z,15.70
2018-03-29T23:48:39.998Z,15.67
2018-03-29T23:51:07.521Z,16.77
2018-03-29T23:53:35.811Z,15.60
2018-03-29T23:56:03.346Z,17.08
2018-03-29T23:58:30.885Z,15.37
